sensor_id;sensor_type;location;lat;lon;timestamp;P1;durP1;ratioP1;P2;durP2;ratioP2
10586;SDS011;5341;47.606;7.576;2023-04-16T00:01:05;3.67;;;2.97;;
10586;SDS011;5341;47.606;7.576;2023-04-16T00:03:37;3.20;;;2.90;;
10586;SDS011;5341;47.606;7.576;2023-04-16T00:06:09;3.55;;;2.85;;
10586;SDS011;5341;47.606;7.576;2023-04-16T00:08:39;3.60;;;3.30;;
10586;SDS011;5341;47.606;7.576;2023-04-16T00:11:08;8.88;;;3.42;;
10586;SDS011;5341;47.606;7.576;2023-04-16T00:13:36;3.33;;;3.03;;
10586;SDS011;5341;47.606;7.576;2023-04-16T00:16:06;4.05;;;3.33;;
10586;SDS011;5341;47.606;7.576;2023-04-16T00:18:34;3.92;;;3.63;;
10586;SDS011;5341;47.606;7.576;2023-04-16T00:21:05;3.80;;;3.40;;
10586;SDS011;5341;47.606;7.576;2023-04-16T00:23:34;4.05;;;3.65;;
10586;SDS011;5341;47.606;7.576;2023-04-16T00:26:05;3.70;;;3.40;;
10586;SDS011;5341;47.606;7.576;2023-04-16T00:28:34;5.85;;;3.88;;
10586;SDS011;5341;47.606;7.576;2023-04-16T00:31:02;3.80;;;3.50;;
10586;SDS011;5341;47.606;7.576;2023-04-16T00:33:30;4.65;;;3.30;;
10586;SDS011;5341;47.606;7.576;2023-04-16T00:35:58;5.60;;;3.95;;
10586;SDS011;5341;47.606;7.576;2023-04-16T00:38:27;3.83;;;3.50;;
10586;SDS011;5341;47.606;7.576;2023-04-16T00:40:57;4.32;;;3.92;;
10586;SDS011;5341;47.606;7.576;2023-04-16T00:43:26;4.63;;;3.47;;
10586;SDS011;5341;47.606;7.576;2023-04-16T00:45:56;4.28;;;3.90;;
10586;SDS011;5341;47.606;7.576;2023-04-16T00:48:25;4.10;;;3.80;;
10586;SDS011;5341;47.606;7.576;2023-04-16T00:50:53;5.88;;;4.07;;
10586;SDS011;5341;47.606;7.576;2023-04-16T00:53:22;4.70;;;3.80;;
10586;SDS011;5341;47.606;7.576;2023-04-16T00:55:51;4.53;;;4.13;;
10586;SDS011;5341;47.606;7.576;2023-04-16T00:58:21;4.30;;;4.00;;
10586;SDS011;5341;47.606;7.576;2023-04-16T01:00:51;5.82;;;4.25;;
10586;SDS011;5341;47.606;7.576;2023-04-16T01:03:19;4.55;;;4.15;;
10586;SDS011;5341;47.606;7.576;2023-04-16T01:05:47;4.22;;;3.83;;
10586;SDS011;5341;47.606;7.576;2023-04-16T01:08:16;4.38;;;3.97;;
10586;SDS011;5341;47.606;7.576;2023-04-16T01:10:44;5.07;;;4.30;;
10586;SDS011;5341;47.606;7.576;2023-04-16T01:13:12;4.30;;;3.90;;
10586;SDS011;5341;47.606;7.576;2023-04-16T01:15:42;4.45;;;4.05;;
10586;SDS011;5341;47.606;7.576;2023-04-16T01:18:15;3.80;;;3.50;;
10586;SDS011;5341;47.606;7.576;2023-04-16T01:20:47;6.85;;;3.80;;
10586;SDS011;5341;47.606;7.576;2023-04-16T01:23:17;4.07;;;3.78;;
10586;SDS011;5341;47.606;7.576;2023-04-16T01:25:45;4.40;;;4.00;;
10586;SDS011;5341;47.606;7.576;2023-04-16T01:28:12;3.92;;;3.63;;
10586;SDS011;5341;47.606;7.576;2023-04-16T01:30:40;4.40;;;4.00;;
10586;SDS011;5341;47.606;7.576;2023-04-16T01:33:30;4.03;;;3.60;;
10586;SDS011;5341;47.606;7.576;2023-04-16T01:35:59;4.00;;;3.60;;
10586;SDS011;5341;47.606;7.576;2023-04-16T01:38:27;4.10;;;3.75;;
10586;SDS011;5341;47.606;7.576;2023-04-16T01:40:55;4.35;;;3.95;;
10586;SDS011;5341;47.606;7.576;2023-04-16T01:43:24;4.90;;;4.40;;
10586;SDS011;5341;47.606;7.576;2023-04-16T01:45:51;4.15;;;3.78;;
10586;SDS011;5341;47.606;7.576;2023-04-16T01:48:25;4.00;;;3.60;;
10586;SDS011;5341;47.606;7.576;2023-04-16T01:50:52;4.10;;;3.80;;
10586;SDS011;5341;47.606;7.576;2023-04-16T01:53:21;4.72;;;4.32;;
10586;SDS011;5341;47.606;7.576;2023-04-16T01:55:49;4.78;;;4.28;;
10586;SDS011;5341;47.606;7.576;2023-04-16T01:58:17;4.72;;;4.22;;
10586;SDS011;5341;47.606;7.576;2023-04-16T02:00:45;4.68;;;4.10;;
10586;SDS011;5341;47.606;7.576;2023-04-16T02:03:14;5.00;;;4.50;;
10586;SDS011;5341;47.606;7.576;2023-04-16T02:05:43;4.80;;;4.40;;
10586;SDS011;5341;47.606;7.576;2023-04-16T02:08:12;5.07;;;4.57;;
10586;SDS011;5341;47.606;7.576;2023-04-16T02:10:41;5.88;;;5.18;;
10586;SDS011;5341;47.606;7.576;2023-04-16T02:13:11;4.85;;;4.45;;
10586;SDS011;5341;47.606;7.576;2023-04-16T02:15:43;4.75;;;4.35;;
10586;SDS011;5341;47.606;7.576;2023-04-16T02:18:12;4.70;;;4.30;;
10586;SDS011;5341;47.606;7.576;2023-04-16T02:20:40;4.25;;;3.80;;
10586;SDS011;5341;47.606;7.576;2023-04-16T02:23:09;4.35;;;3.97;;
10586;SDS011;5341;47.606;7.576;2023-04-16T02:25:37;5.00;;;4.60;;
10586;SDS011;5341;47.606;7.576;2023-04-16T02:28:10;4.57;;;4.18;;
10586;SDS011;5341;47.606;7.576;2023-04-16T02:30:40;4.65;;;4.25;;
10586;SDS011;5341;47.606;7.576;2023-04-16T02:33:10;5.22;;;4.18;;
10586;SDS011;5341;47.606;7.576;2023-04-16T02:35:49;5.18;;;4.68;;
10586;SDS011;5341;47.606;7.576;2023-04-16T02:38:18;4.43;;;4.03;;
10586;SDS011;5341;47.606;7.576;2023-04-16T02:40:46;4.30;;;4.00;;
10586;SDS011;5341;47.606;7.576;2023-04-16T02:43:16;4.55;;;4.15;;
10586;SDS011;5341;47.606;7.576;2023-04-16T02:45:45;4.80;;;4.40;;
10586;SDS011;5341;47.606;7.576;2023-04-16T02:48:14;4.85;;;4.45;;
10586;SDS011;5341;47.606;7.576;2023-04-16T02:50:42;4.63;;;4.22;;
10586;SDS011;5341;47.606;7.576;2023-04-16T02:53:11;7.13;;;4.63;;
10586;SDS011;5341;47.606;7.576;2023-04-16T02:55:41;4.80;;;4.30;;
10586;SDS011;5341;47.606;7.576;2023-04-16T02:58:21;5.32;;;4.82;;
10586;SDS011;5341;47.606;7.576;2023-04-16T03:00:51;5.07;;;4.63;;
10586;SDS011;5341;47.606;7.576;2023-04-16T03:03:21;5.03;;;4.63;;
10586;SDS011;5341;47.606;7.576;2023-04-16T03:05:50;5.40;;;4.90;;
10586;SDS011;5341;47.606;7.576;2023-04-16T03:08:17;5.72;;;5.22;;
10586;SDS011;5341;47.606;7.576;2023-04-16T03:10:46;5.07;;;4.57;;
10586;SDS011;5341;47.606;7.576;2023-04-16T03:13:13;6.95;;;4.80;;
10586;SDS011;5341;47.606;7.576;2023-04-16T03:15:48;5.45;;;4.93;;
10586;SDS011;5341;47.606;7.576;2023-04-16T03:18:15;4.80;;;4.40;;
10586;SDS011;5341;47.606;7.576;2023-04-16T03:20:43;5.53;;;5.03;;
10586;SDS011;5341;47.606;7.576;2023-04-16T03:23:11;5.28;;;4.78;;
10586;SDS011;5341;47.606;7.576;2023-04-16T03:25:39;5.10;;;4.60;;
10586;SDS011;5341;47.606;7.576;2023-04-16T03:28:09;5.30;;;4.80;;
10586;SDS011;5341;47.606;7.576;2023-04-16T03:30:38;5.72;;;5.22;;
10586;SDS011;5341;47.606;7.576;2023-04-16T03:33:08;5.93;;;5.43;;
10586;SDS011;5341;47.606;7.576;2023-04-16T03:35:39;6.45;;;5.70;;
10586;SDS011;5341;47.606;7.576;2023-04-16T03:38:08;6.53;;;5.93;;
10586;SDS011;5341;47.606;7.576;2023-04-16T03:40:38;7.28;;;6.57;;
10586;SDS011;5341;47.606;7.576;2023-04-16T03:43:06;6.88;;;5.55;;
10586;SDS011;5341;47.606;7.576;2023-04-16T03:45:34;6.65;;;6.03;;
10586;SDS011;5341;47.606;7.576;2023-04-16T03:48:02;6.53;;;5.93;;
10586;SDS011;5341;47.606;7.576;2023-04-16T03:50:32;6.78;;;6.10;;
10586;SDS011;5341;47.606;7.576;2023-04-16T03:53:02;8.20;;;7.25;;
10586;SDS011;5341;47.606;7.576;2023-04-16T03:55:30;7.93;;;7.22;;
10586;SDS011;5341;47.606;7.576;2023-04-16T03:57:58;7.88;;;7.07;;
10586;SDS011;5341;47.606;7.576;2023-04-16T04:00:27;8.45;;;7.60;;
10586;SDS011;5341;47.606;7.576;2023-04-16T04:03:03;8.27;;;7.47;;
10586;SDS011;5341;47.606;7.576;2023-04-16T04:05:36;9.48;;;8.57;;
10586;SDS011;5341;47.606;7.576;2023-04-16T04:08:04;8.65;;;7.85;;
10586;SDS011;5341;47.606;7.576;2023-04-16T04:10:31;8.75;;;7.85;;
10586;SDS011;5341;47.606;7.576;2023-04-16T04:13:01;8.27;;;7.25;;
10586;SDS011;5341;47.606;7.576;2023-04-16T04:15:29;8.40;;;7.60;;
10586;SDS011;5341;47.606;7.576;2023-04-16T04:17:57;8.43;;;7.63;;
10586;SDS011;5341;47.606;7.576;2023-04-16T04:20:29;8.60;;;7.80;;
10586;SDS011;5341;47.606;7.576;2023-04-16T04:22:58;8.68;;;7.75;;
10586;SDS011;5341;47.606;7.576;2023-04-16T04:25:26;9.18;;;8.25;;
10586;SDS011;5341;47.606;7.576;2023-04-16T04:27:54;9.02;;;8.23;;
10586;SDS011;5341;47.606;7.576;2023-04-16T04:30:22;9.18;;;8.27;;
10586;SDS011;5341;47.606;7.576;2023-04-16T04:32:50;11.07;;;8.23;;
10586;SDS011;5341;47.606;7.576;2023-04-16T04:35:20;9.38;;;8.38;;
10586;SDS011;5341;47.606;7.576;2023-04-16T04:37:48;9.23;;;8.32;;
10586;SDS011;5341;47.606;7.576;2023-04-16T04:40:20;8.98;;;8.18;;
10586;SDS011;5341;47.606;7.576;2023-04-16T04:42:48;10.40;;;8.95;;
10586;SDS011;5341;47.606;7.576;2023-04-16T04:45:16;9.18;;;8.27;;
10586;SDS011;5341;47.606;7.576;2023-04-16T04:47:45;9.75;;;8.85;;
10586;SDS011;5341;47.606;7.576;2023-04-16T04:50:14;9.68;;;8.68;;
10586;SDS011;5341;47.606;7.576;2023-04-16T04:52:42;10.05;;;9.05;;
10586;SDS011;5341;47.606;7.576;2023-04-16T04:55:09;9.70;;;8.70;;
10586;SDS011;5341;47.606;7.576;2023-04-16T04:57:41;8.95;;;8.05;;
10586;SDS011;5341;47.606;7.576;2023-04-16T05:00:09;9.65;;;8.75;;
10586;SDS011;5341;47.606;7.576;2023-04-16T05:02:43;9.10;;;8.30;;
10586;SDS011;5341;47.606;7.576;2023-04-16T05:05:12;9.07;;;8.25;;
10586;SDS011;5341;47.606;7.576;2023-04-16T05:07:39;10.07;;;9.02;;
10586;SDS011;5341;47.606;7.576;2023-04-16T05:10:07;10.38;;;8.55;;
10586;SDS011;5341;47.606;7.576;2023-04-16T05:12:35;10.10;;;8.63;;
10586;SDS011;5341;47.606;7.576;2023-04-16T05:15:06;9.52;;;8.60;;
10586;SDS011;5341;47.606;7.576;2023-04-16T05:17:34;9.27;;;8.38;;
10586;SDS011;5341;47.606;7.576;2023-04-16T05:20:02;7.80;;;7.10;;
10586;SDS011;5341;47.606;7.576;2023-04-16T05:22:31;6.20;;;5.60;;
10586;SDS011;5341;47.606;7.576;2023-04-16T05:24:59;5.72;;;5.22;;
10586;SDS011;5341;47.606;7.576;2023-04-16T05:27:27;5.30;;;4.80;;
10586;SDS011;5341;47.606;7.576;2023-04-16T05:29:55;5.15;;;4.47;;
10586;SDS011;5341;47.606;7.576;2023-04-16T05:32:25;5.10;;;4.07;;
10586;SDS011;5341;47.606;7.576;2023-04-16T05:34:56;5.60;;;3.97;;
10586;SDS011;5341;47.606;7.576;2023-04-16T05:37:23;5.95;;;3.70;;
10586;SDS011;5341;47.606;7.576;2023-04-16T05:39:51;3.95;;;3.53;;
10586;SDS011;5341;47.606;7.576;2023-04-16T05:42:18;5.22;;;3.38;;
10586;SDS011;5341;47.606;7.576;2023-04-16T05:44:46;3.80;;;3.40;;
10586;SDS011;5341;47.606;7.576;2023-04-16T05:47:15;3.67;;;3.30;;
10586;SDS011;5341;47.606;7.576;2023-04-16T05:49:46;4.82;;;3.03;;
10586;SDS011;5341;47.606;7.576;2023-04-16T05:52:16;3.55;;;3.08;;
10586;SDS011;5341;47.606;7.576;2023-04-16T05:54:43;3.30;;;2.65;;
10586;SDS011;5341;47.606;7.576;2023-04-16T05:57:12;3.17;;;2.45;;
10586;SDS011;5341;47.606;7.576;2023-04-16T05:59:40;3.90;;;2.28;;
10586;SDS011;5341;47.606;7.576;2023-04-16T06:02:08;2.80;;;2.47;;
10586;SDS011;5341;47.606;7.576;2023-04-16T06:04:36;4.53;;;2.58;;
10586;SDS011;5341;47.606;7.576;2023-04-16T06:07:05;2.70;;;2.13;;
10586;SDS011;5341;47.606;7.576;2023-04-16T06:09:32;2.65;;;2.45;;
10586;SDS011;5341;47.606;7.576;2023-04-16T06:12:00;3.30;;;2.47;;
10586;SDS011;5341;47.606;7.576;2023-04-16T06:14:28;2.40;;;2.20;;
10586;SDS011;5341;47.606;7.576;2023-04-16T06:16:55;3.75;;;2.40;;
10586;SDS011;5341;47.606;7.576;2023-04-16T06:19:23;2.83;;;2.20;;
10586;SDS011;5341;47.606;7.576;2023-04-16T06:21:51;4.07;;;2.30;;
10586;SDS011;5341;47.606;7.576;2023-04-16T06:24:20;3.20;;;2.20;;
10586;SDS011;5341;47.606;7.576;2023-04-16T06:26:47;2.58;;;2.15;;
10586;SDS011;5341;47.606;7.576;2023-04-16T06:29:15;4.35;;;2.30;;
10586;SDS011;5341;47.606;7.576;2023-04-16T06:31:42;2.50;;;2.30;;
10586;SDS011;5341;47.606;7.576;2023-04-16T06:34:10;3.13;;;2.20;;
10586;SDS011;5341;47.606;7.576;2023-04-16T06:36:38;2.92;;;2.33;;
10586;SDS011;5341;47.606;7.576;2023-04-16T06:39:05;2.97;;;2.40;;
10586;SDS011;5341;47.606;7.576;2023-04-16T06:41:34;2.40;;;2.20;;
10586;SDS011;5341;47.606;7.576;2023-04-16T06:44:01;2.92;;;2.22;;
10586;SDS011;5341;47.606;7.576;2023-04-16T06:46:29;2.72;;;2.20;;
10586;SDS011;5341;47.606;7.576;2023-04-16T06:48:57;3.13;;;2.35;;
10586;SDS011;5341;47.606;7.576;2023-04-16T06:51:25;2.83;;;2.30;;
10586;SDS011;5341;47.606;7.576;2023-04-16T06:53:52;2.60;;;2.35;;
10586;SDS011;5341;47.606;7.576;2023-04-16T06:56:20;2.50;;;2.10;;
10586;SDS011;5341;47.606;7.576;2023-04-16T06:58:49;3.42;;;2.20;;
10586;SDS011;5341;47.606;7.576;2023-04-16T07:01:16;3.83;;;2.15;;
10586;SDS011;5341;47.606;7.576;2023-04-16T07:03:45;4.30;;;2.30;;
10586;SDS011;5341;47.606;7.576;2023-04-16T07:06:18;3.17;;;2.38;;
10586;SDS011;5341;47.606;7.576;2023-04-16T07:08:45;2.65;;;2.05;;
10586;SDS011;5341;47.606;7.576;2023-04-16T07:11:14;3.03;;;2.35;;
10586;SDS011;5341;47.606;7.576;2023-04-16T07:13:43;2.70;;;2.45;;
10586;SDS011;5341;47.606;7.576;2023-04-16T07:16:13;2.78;;;2.20;;
10586;SDS011;5341;47.606;7.576;2023-04-16T07:18:41;2.63;;;2.30;;
10586;SDS011;5341;47.606;7.576;2023-04-16T07:21:10;2.22;;;2.00;;
10586;SDS011;5341;47.606;7.576;2023-04-16T07:23:37;2.97;;;2.22;;
10586;SDS011;5341;47.606;7.576;2023-04-16T07:26:06;2.67;;;2.10;;
10586;SDS011;5341;47.606;7.576;2023-04-16T07:28:34;2.25;;;2.05;;
10586;SDS011;5341;47.606;7.576;2023-04-16T07:31:01;2.90;;;2.33;;
10586;SDS011;5341;47.606;7.576;2023-04-16T07:33:30;2.83;;;2.38;;
10586;SDS011;5341;47.606;7.576;2023-04-16T07:35:58;2.70;;;2.03;;
10586;SDS011;5341;47.606;7.576;2023-04-16T07:38:25;2.63;;;1.92;;
10586;SDS011;5341;47.606;7.576;2023-04-16T07:40:54;3.38;;;2.13;;
10586;SDS011;5341;47.606;7.576;2023-04-16T07:43:22;3.00;;;2.55;;
10586;SDS011;5341;47.606;7.576;2023-04-16T07:45:49;3.97;;;2.05;;
10586;SDS011;5341;47.606;7.576;2023-04-16T07:48:17;2.15;;;1.95;;
10586;SDS011;5341;47.606;7.576;2023-04-16T07:50:46;4.22;;;2.08;;
10586;SDS011;5341;47.606;7.576;2023-04-16T07:53:14;3.03;;;2.35;;
10586;SDS011;5341;47.606;7.576;2023-04-16T07:55:42;2.65;;;2.30;;
10586;SDS011;5341;47.606;7.576;2023-04-16T07:58:09;3.35;;;2.10;;
10586;SDS011;5341;47.606;7.576;2023-04-16T08:00:37;2.35;;;2.15;;
10586;SDS011;5341;47.606;7.576;2023-04-16T08:03:05;3.47;;;2.60;;
10586;SDS011;5341;47.606;7.576;2023-04-16T08:05:32;3.92;;;3.10;;
10586;SDS011;5341;47.606;7.576;2023-04-16T08:08:01;3.40;;;2.88;;
10586;SDS011;5341;47.606;7.576;2023-04-16T08:10:29;3.30;;;2.80;;
10586;SDS011;5341;47.606;7.576;2023-04-16T08:12:58;3.38;;;3.08;;
10586;SDS011;5341;47.606;7.576;2023-04-16T08:15:26;3.58;;;3.08;;
10586;SDS011;5341;47.606;7.576;2023-04-16T08:17:54;3.35;;;3.05;;
10586;SDS011;5341;47.606;7.576;2023-04-16T08:20:22;3.72;;;3.08;;
10586;SDS011;5341;47.606;7.576;2023-04-16T08:22:50;3.42;;;3.03;;
10586;SDS011;5341;47.606;7.576;2023-04-16T08:25:22;3.42;;;3.10;;
10586;SDS011;5341;47.606;7.576;2023-04-16T08:27:50;2.92;;;2.63;;
10586;SDS011;5341;47.606;7.576;2023-04-16T08:30:18;3.40;;;2.67;;
10586;SDS011;5341;47.606;7.576;2023-04-16T08:32:51;3.78;;;2.72;;
10586;SDS011;5341;47.606;7.576;2023-04-16T08:35:19;3.15;;;2.80;;
10586;SDS011;5341;47.606;7.576;2023-04-16T08:37:47;3.63;;;2.55;;
10586;SDS011;5341;47.606;7.576;2023-04-16T08:40:16;3.17;;;2.60;;
10586;SDS011;5341;47.606;7.576;2023-04-16T08:42:47;3.00;;;2.70;;
10586;SDS011;5341;47.606;7.576;2023-04-16T08:45:20;2.80;;;2.60;;
10586;SDS011;5341;47.606;7.576;2023-04-16T08:47:48;4.00;;;2.47;;
10586;SDS011;5341;47.606;7.576;2023-04-16T08:50:18;4.82;;;2.65;;
10586;SDS011;5341;47.606;7.576;2023-04-16T08:52:52;3.25;;;2.65;;
10586;SDS011;5341;47.606;7.576;2023-04-16T08:55:24;2.65;;;2.45;;
10586;SDS011;5341;47.606;7.576;2023-04-16T08:57:58;3.08;;;2.78;;
10586;SDS011;5341;47.606;7.576;2023-04-16T09:00:27;3.05;;;2.60;;
10586;SDS011;5341;47.606;7.576;2023-04-16T09:02:57;3.53;;;2.65;;
10586;SDS011;5341;47.606;7.576;2023-04-16T09:05:25;3.00;;;2.55;;
10586;SDS011;5341;47.606;7.576;2023-04-16T09:07:56;2.90;;;2.60;;
10586;SDS011;5341;47.606;7.576;2023-04-16T09:10:25;2.63;;;2.42;;
10586;SDS011;5341;47.606;7.576;2023-04-16T09:12:54;3.03;;;2.60;;
10586;SDS011;5341;47.606;7.576;2023-04-16T09:15:25;3.67;;;3.05;;
10586;SDS011;5341;47.606;7.576;2023-04-16T09:17:53;3.00;;;2.70;;
10586;SDS011;5341;47.606;7.576;2023-04-16T09:20:22;3.47;;;2.90;;
10586;SDS011;5341;47.606;7.576;2023-04-16T09:22:52;5.22;;;2.80;;
10586;SDS011;5341;47.606;7.576;2023-04-16T09:25:21;3.13;;;2.83;;
10586;SDS011;5341;47.606;7.576;2023-04-16T09:27:50;4.55;;;3.22;;
10586;SDS011;5341;47.606;7.576;2023-04-16T09:30:19;4.20;;;3.40;;
10586;SDS011;5341;47.606;7.576;2023-04-16T09:32:49;5.72;;;3.92;;
10586;SDS011;5341;47.606;7.576;2023-04-16T09:35:18;4.93;;;4.15;;
10586;SDS011;5341;47.606;7.576;2023-04-16T09:37:53;4.40;;;3.97;;
10586;SDS011;5341;47.606;7.576;2023-04-16T09:40:23;7.13;;;3.65;;
10586;SDS011;5341;47.606;7.576;2023-04-16T09:42:51;4.50;;;3.90;;
10586;SDS011;5341;47.606;7.576;2023-04-16T09:45:25;4.07;;;3.67;;
10586;SDS011;5341;47.606;7.576;2023-04-16T09:48:02;4.15;;;3.63;;
10586;SDS011;5341;47.606;7.576;2023-04-16T09:50:31;5.38;;;4.10;;
10586;SDS011;5341;47.606;7.576;2023-04-16T09:52:59;5.22;;;4.10;;
10586;SDS011;5341;47.606;7.576;2023-04-16T09:55:28;4.40;;;3.92;;
10586;SDS011;5341;47.606;7.576;2023-04-16T09:57:58;5.47;;;4.18;;
10586;SDS011;5341;47.606;7.576;2023-04-16T10:00:27;7.15;;;4.63;;
10586;SDS011;5341;47.606;7.576;2023-04-16T10:03:03;6.32;;;4.43;;
10586;SDS011;5341;47.606;7.576;2023-04-16T10:05:31;6.07;;;4.20;;
10586;SDS011;5341;47.606;7.576;2023-04-16T10:07:59;7.32;;;5.00;;
10586;SDS011;5341;47.606;7.576;2023-04-16T10:10:27;6.03;;;4.50;;
10586;SDS011;5341;47.606;7.576;2023-04-16T10:12:54;5.07;;;4.55;;
10586;SDS011;5341;47.606;7.576;2023-04-16T10:15:22;6.45;;;4.28;;
10586;SDS011;5341;47.606;7.576;2023-04-16T10:17:50;4.20;;;3.80;;
10586;SDS011;5341;47.606;7.576;2023-04-16T10:20:20;4.53;;;3.90;;
10586;SDS011;5341;47.606;7.576;2023-04-16T10:22:48;5.32;;;4.45;;
10586;SDS011;5341;47.606;7.576;2023-04-16T10:25:16;8.45;;;4.47;;
10586;SDS011;5341;47.606;7.576;2023-04-16T10:27:44;5.18;;;4.18;;
10586;SDS011;5341;47.606;7.576;2023-04-16T10:30:14;6.15;;;4.57;;
10586;SDS011;5341;47.606;7.576;2023-04-16T10:32:43;5.60;;;4.32;;
10586;SDS011;5341;47.606;7.576;2023-04-16T10:35:14;4.88;;;4.45;;
10586;SDS011;5341;47.606;7.576;2023-04-16T10:37:46;4.95;;;4.40;;
10586;SDS011;5341;47.606;7.576;2023-04-16T10:40:23;5.18;;;4.68;;
10586;SDS011;5341;47.606;7.576;2023-04-16T10:42:55;4.88;;;4.38;;
10586;SDS011;5341;47.606;7.576;2023-04-16T10:45:28;6.07;;;5.25;;
10586;SDS011;5341;47.606;7.576;2023-04-16T10:47:57;7.15;;;5.05;;
10586;SDS011;5341;47.606;7.576;2023-04-16T10:50:30;7.40;;;4.70;;
10586;SDS011;5341;47.606;7.576;2023-04-16T10:56:10;5.30;;;4.70;;
10586;SDS011;5341;47.606;7.576;2023-04-16T10:58:38;8.35;;;7.03;;
10586;SDS011;5341;47.606;7.576;2023-04-16T11:01:06;6.55;;;5.80;;
10586;SDS011;5341;47.606;7.576;2023-04-16T11:03:39;7.38;;;6.20;;
10586;SDS011;5341;47.606;7.576;2023-04-16T11:06:11;8.40;;;6.43;;
10586;SDS011;5341;47.606;7.576;2023-04-16T11:08:42;7.50;;;5.40;;
10586;SDS011;5341;47.606;7.576;2023-04-16T11:11:13;7.38;;;5.75;;
10586;SDS011;5341;47.606;7.576;2023-04-16T11:13:41;7.43;;;5.80;;
10586;SDS011;5341;47.606;7.576;2023-04-16T11:16:10;7.00;;;6.15;;
10586;SDS011;5341;47.606;7.576;2023-04-16T11:18:38;8.55;;;6.82;;
10586;SDS011;5341;47.606;7.576;2023-04-16T11:21:07;12.40;;;7.40;;
10586;SDS011;5341;47.606;7.576;2023-04-16T11:23:46;8.32;;;7.32;;
10586;SDS011;5341;47.606;7.576;2023-04-16T11:26:25;9.35;;;7.25;;
10586;SDS011;5341;47.606;7.576;2023-04-16T11:28:55;7.15;;;5.90;;
10586;SDS011;5341;47.606;7.576;2023-04-16T11:31:24;8.63;;;6.13;;
10586;SDS011;5341;47.606;7.576;2023-04-16T11:33:57;7.88;;;5.80;;
10586;SDS011;5341;47.606;7.576;2023-04-16T11:36:25;10.88;;;7.10;;
10586;SDS011;5341;47.606;7.576;2023-04-16T11:38:59;9.45;;;7.18;;
10586;SDS011;5341;47.606;7.576;2023-04-16T11:41:30;9.07;;;6.07;;
10586;SDS011;5341;47.606;7.576;2023-04-16T11:43:57;10.45;;;7.55;;
10586;SDS011;5341;47.606;7.576;2023-04-16T11:46:36;11.00;;;7.35;;
10586;SDS011;5341;47.606;7.576;2023-04-16T11:49:04;10.65;;;7.45;;
10586;SDS011;5341;47.606;7.576;2023-04-16T11:51:32;7.43;;;5.55;;
10586;SDS011;5341;47.606;7.576;2023-04-16T11:54:04;7.15;;;5.13;;
10586;SDS011;5341;47.606;7.576;2023-04-16T11:56:34;9.32;;;5.90;;
10586;SDS011;5341;47.606;7.576;2023-04-16T11:59:06;9.48;;;5.90;;
10586;SDS011;5341;47.606;7.576;2023-04-16T12:01:35;10.05;;;5.85;;
10586;SDS011;5341;47.606;7.576;2023-04-16T12:04:03;8.05;;;5.70;;
10586;SDS011;5341;47.606;7.576;2023-04-16T12:06:31;7.35;;;5.63;;
10586;SDS011;5341;47.606;7.576;2023-04-16T12:08:59;7.22;;;5.55;;
10586;SDS011;5341;47.606;7.576;2023-04-16T12:11:40;7.28;;;5.00;;
10586;SDS011;5341;47.606;7.576;2023-04-16T12:14:08;6.63;;;4.70;;
10586;SDS011;5341;47.606;7.576;2023-04-16T12:16:36;7.55;;;4.97;;
10586;SDS011;5341;47.606;7.576;2023-04-16T12:19:04;6.25;;;5.40;;
10586;SDS011;5341;47.606;7.576;2023-04-16T12:21:38;5.93;;;5.22;;
10586;SDS011;5341;47.606;7.576;2023-04-16T12:24:06;5.93;;;4.80;;
10586;SDS011;5341;47.606;7.576;2023-04-16T12:26:35;5.28;;;4.78;;
10586;SDS011;5341;47.606;7.576;2023-04-16T12:29:18;5.05;;;4.55;;
10586;SDS011;5341;47.606;7.576;2023-04-16T12:31:47;5.57;;;4.47;;
10586;SDS011;5341;47.606;7.576;2023-04-16T12:34:16;5.25;;;4.20;;
10586;SDS011;5341;47.606;7.576;2023-04-16T12:36:44;5.85;;;4.00;;
10586;SDS011;5341;47.606;7.576;2023-04-16T12:39:13;4.18;;;3.78;;
10586;SDS011;5341;47.606;7.576;2023-04-16T12:41:42;4.80;;;3.97;;
10586;SDS011;5341;47.606;7.576;2023-04-16T12:44:11;4.60;;;4.20;;
10586;SDS011;5341;47.606;7.576;2023-04-16T12:46:43;4.60;;;4.20;;
10586;SDS011;5341;47.606;7.576;2023-04-16T12:49:11;5.88;;;4.78;;
10586;SDS011;5341;47.606;7.576;2023-04-16T12:51:38;5.30;;;4.80;;
10586;SDS011;5341;47.606;7.576;2023-04-16T12:54:07;6.28;;;4.85;;
10586;SDS011;5341;47.606;7.576;2023-04-16T12:56:34;6.22;;;4.88;;
10586;SDS011;5341;47.606;7.576;2023-04-16T12:59:02;7.53;;;5.93;;
10586;SDS011;5341;47.606;7.576;2023-04-16T13:01:29;6.55;;;5.82;;
10586;SDS011;5341;47.606;7.576;2023-04-16T13:04:01;11.60;;;8.75;;
10586;SDS011;5341;47.606;7.576;2023-04-16T13:06:29;17.17;;;12.13;;
10586;SDS011;5341;47.606;7.576;2023-04-16T13:08:58;14.88;;;11.05;;
10586;SDS011;5341;47.606;7.576;2023-04-16T13:11:25;11.35;;;9.35;;
10586;SDS011;5341;47.606;7.576;2023-04-16T13:13:53;12.07;;;9.13;;
10586;SDS011;5341;47.606;7.576;2023-04-16T13:16:21;9.35;;;8.32;;
10586;SDS011;5341;47.606;7.576;2023-04-16T13:18:52;8.20;;;7.40;;
10586;SDS011;5341;47.606;7.576;2023-04-16T13:21:21;8.73;;;6.35;;
10586;SDS011;5341;47.606;7.576;2023-04-16T13:23:49;8.40;;;6.53;;
10586;SDS011;5341;47.606;7.576;2023-04-16T13:26:16;7.43;;;6.40;;
10586;SDS011;5341;47.606;7.576;2023-04-16T13:28:44;7.30;;;6.43;;
10586;SDS011;5341;47.606;7.576;2023-04-16T13:31:11;8.98;;;6.40;;
10586;SDS011;5341;47.606;7.576;2023-04-16T13:33:40;7.57;;;6.70;;
10586;SDS011;5341;47.606;7.576;2023-04-16T13:36:07;7.60;;;6.65;;
10586;SDS011;5341;47.606;7.576;2023-04-16T13:38:36;8.57;;;7.07;;
10586;SDS011;5341;47.606;7.576;2023-04-16T13:41:04;9.02;;;7.43;;
10586;SDS011;5341;47.606;7.576;2023-04-16T13:43:31;9.30;;;7.20;;
10586;SDS011;5341;47.606;7.576;2023-04-16T13:45:59;8.20;;;7.40;;
10586;SDS011;5341;47.606;7.576;2023-04-16T13:48:26;7.57;;;6.65;;
10586;SDS011;5341;47.606;7.576;2023-04-16T13:50:54;11.45;;;8.70;;
10586;SDS011;5341;47.606;7.576;2023-04-16T13:53:21;8.20;;;7.40;;
10586;SDS011;5341;47.606;7.576;2023-04-16T13:55:51;11.02;;;8.00;;
10586;SDS011;5341;47.606;7.576;2023-04-16T13:58:19;10.30;;;8.85;;
10586;SDS011;5341;47.606;7.576;2023-04-16T14:00:47;12.30;;;10.68;;
10586;SDS011;5341;47.606;7.576;2023-04-16T14:03:16;20.23;;;15.43;;
10586;SDS011;5341;47.606;7.576;2023-04-16T14:05:43;24.15;;;19.50;;
10586;SDS011;5341;47.606;7.576;2023-04-16T14:08:11;24.13;;;20.58;;
10586;SDS011;5341;47.606;7.576;2023-04-16T14:10:41;17.25;;;13.95;;
10586;SDS011;5341;47.606;7.576;2023-04-16T14:13:10;20.85;;;17.23;;
10586;SDS011;5341;47.606;7.576;2023-04-16T14:15:38;17.60;;;15.13;;
10586;SDS011;5341;47.606;7.576;2023-04-16T14:18:06;16.75;;;13.98;;
10586;SDS011;5341;47.606;7.576;2023-04-16T14:20:34;13.30;;;11.90;;
10586;SDS011;5341;47.606;7.576;2023-04-16T14:23:04;16.50;;;13.30;;
10586;SDS011;5341;47.606;7.576;2023-04-16T14:25:32;21.40;;;16.77;;
10586;SDS011;5341;47.606;7.576;2023-04-16T14:28:00;17.48;;;13.63;;
10586;SDS011;5341;47.606;7.576;2023-04-16T14:30:29;16.48;;;14.65;;
10586;SDS011;5341;47.606;7.576;2023-04-16T14:32:57;14.55;;;12.43;;
10586;SDS011;5341;47.606;7.576;2023-04-16T14:35:26;13.30;;;10.18;;
10586;SDS011;5341;47.606;7.576;2023-04-16T14:37:54;12.80;;;11.40;;
10586;SDS011;5341;47.606;7.576;2023-04-16T14:40:24;14.45;;;10.77;;
10586;SDS011;5341;47.606;7.576;2023-04-16T14:42:52;10.88;;;9.77;;
10586;SDS011;5341;47.606;7.576;2023-04-16T14:45:20;11.25;;;9.70;;
10586;SDS011;5341;47.606;7.576;2023-04-16T14:47:49;11.57;;;9.10;;
10586;SDS011;5341;47.606;7.576;2023-04-16T14:50:18;10.07;;;8.98;;
10586;SDS011;5341;47.606;7.576;2023-04-16T14:52:46;11.18;;;9.32;;
10586;SDS011;5341;47.606;7.576;2023-04-16T14:55:13;14.30;;;10.63;;
10586;SDS011;5341;47.606;7.576;2023-04-16T14:57:41;12.70;;;10.45;;
10586;SDS011;5341;47.606;7.576;2023-04-16T15:00:09;12.60;;;10.10;;
10586;SDS011;5341;47.606;7.576;2023-04-16T15:02:37;11.68;;;9.80;;
10586;SDS011;5341;47.606;7.576;2023-04-16T15:05:07;10.18;;;9.07;;
10586;SDS011;5341;47.606;7.576;2023-04-16T15:07:35;11.18;;;9.68;;
10586;SDS011;5341;47.606;7.576;2023-04-16T15:10:03;17.75;;;14.25;;
10586;SDS011;5341;47.606;7.576;2023-04-16T15:12:31;12.88;;;11.27;;